Philadelphia, Pennsylvania
Traffic Map
Current Weather Conditions
Philadelphia, Pennsylvania
Broken Clouds
Broken Clouds
82°
Feels Like: 82°
Wind Chill: 82° Ceiling: 28000
Heat Index: 82° Visibility: 10mi
Dew Point: 55° Wind: 13mph
Humidity: 39% Direction: 330° (NNW)
Pressure: 29.97in Gusts: 0mph
Raw Report DataKPHL 221854Z 33011KT 10SM FEW080 FEW150 SCT230 BKN280 28/13 A2997 RMK AO2 SLP148 T02780128 $
Traffic Incident Summary
Active as of:
Severity:
Category:
InformationThere was an issue retrieving the traffic information for this location. Please try a different location or try again shortly.
Advertisements